createdAt,value
2022-09-18T00:01:22.660Z,10.15
2022-09-18T00:03:49.871Z,15.88
2022-09-18T00:06:20.425Z,9.77
2022-09-18T00:08:52.154Z,9.50
2022-09-18T00:11:22.402Z,11.63
2022-09-18T00:13:50.417Z,12.80
2022-09-18T00:16:21.987Z,10.50
2022-09-18T00:18:49.363Z,17.50
2022-09-18T00:21:21.856Z,13.32
2022-09-18T00:23:48.903Z,9.13
2022-09-18T00:26:18.457Z,14.32
2022-09-18T00:28:46.249Z,12.98
2022-09-18T00:31:16.683Z,15.55
2022-09-18T00:33:44.223Z,14.10
2022-09-18T00:36:14.261Z,18.05
2022-09-18T00:38:41.924Z,12.80
2022-09-18T00:41:13.769Z,18.85
2022-09-18T00:43:41.171Z,17.23
2022-09-18T00:46:19.146Z,13.88
2022-09-18T00:48:48.973Z,17.45
2022-09-18T00:51:18.247Z,14.02
2022-09-18T00:53:54.249Z,13.23
2022-09-18T00:56:21.683Z,16.70
2022-09-18T00:58:49.022Z,8.88
2022-09-18T01:01:16.152Z,8.82
2022-09-18T01:03:43.260Z,10.20
2022-09-18T01:06:37.506Z,16.55
2022-09-18T01:09:11.927Z,10.68
2022-09-18T01:11:53.577Z,13.70
2022-09-18T01:15:02.569Z,16.52
2022-09-18T01:17:48.737Z,11.80
2022-09-18T01:20:50.223Z,9.77
2022-09-18T01:23:51.346Z,16.02
2022-09-18T01:26:36.332Z,10.60
2022-09-18T01:29:08.710Z,15.25
2022-09-18T01:31:52.579Z,10.73
2022-09-18T01:35:18.744Z,10.50
2022-09-18T01:38:13.348Z,8.70
2022-09-18T01:40:48.704Z,10.23
2022-09-18T01:43:21.757Z,16.27
2022-09-18T01:45:53.299Z,11.73
2022-09-18T01:48:30.482Z,14.02
2022-09-18T01:51:06.226Z,10.80
2022-09-18T01:53:39.458Z,14.80
2022-09-18T01:56:13.619Z,16.17
2022-09-18T02:01:16.908Z,17.15
2022-09-18T02:03:58.716Z,13.30
2022-09-18T02:06:32.152Z,10.07
2022-09-18T02:09:02.448Z,14.82
2022-09-18T02:11:33.224Z,12.77
2022-09-18T02:14:26.130Z,14.50
2022-09-18T02:17:18.933Z,11.27
2022-09-18T02:19:57.574Z,16.77
2022-09-18T02:22:27.708Z,12.13
2022-09-18T02:25:05.733Z,16.45
2022-09-18T02:27:36.283Z,14.05
2022-09-18T02:30:07.690Z,13.68
2022-09-18T02:32:37.860Z,14.13
2022-09-18T02:35:08.722Z,10.63
2022-09-18T02:37:48.637Z,13.18
2022-09-18T02:40:29.406Z,7.30
2022-09-18T02:43:21.438Z,12.05
2022-09-18T02:46:26.313Z,12.73
2022-09-18T02:49:09.957Z,11.77
2022-09-18T02:51:52.089Z,9.75
2022-09-18T02:54:55.129Z,13.57
2022-09-18T02:57:33.247Z,12.17
2022-09-18T03:00:01.983Z,11.48
2022-09-18T03:02:38.793Z,12.25
2022-09-18T03:05:07.847Z,12.85
2022-09-18T03:07:43.270Z,9.90
2022-09-18T03:10:11.648Z,11.70
2022-09-18T03:12:38.911Z,8.13
2022-09-18T03:15:06.704Z,11.20
2022-09-18T03:17:37.849Z,11.15
2022-09-18T03:20:07.297Z,8.60
2022-09-18T03:22:35.189Z,9.60
2022-09-18T03:25:07.438Z,8.57
2022-09-18T03:27:34.571Z,11.63
2022-09-18T03:30:02.186Z,8.02
2022-09-18T03:32:34.526Z,11.05
2022-09-18T03:35:01.574Z,13.48
2022-09-18T03:37:28.989Z,10.25
2022-09-18T03:40:02.086Z,8.30
2022-09-18T03:42:29.792Z,5.93
2022-09-18T03:44:59.994Z,11.05
2022-09-18T03:47:28.840Z,9.10
2022-09-18T03:49:58.141Z,4.60
2022-09-18T03:52:25.205Z,6.90
2022-09-18T03:55:01.296Z,6.82
2022-09-18T03:57:47.213Z,4.85
2022-09-18T04:00:33.039Z,8.90
2022-09-18T04:03:06.594Z,12.35
2022-09-18T04:06:00.604Z,9.35
2022-09-18T04:08:47.606Z,11.48
2022-09-18T04:11:26.808Z,9.80
2022-09-18T04:13:53.963Z,11.38
2022-09-18T04:16:21.286Z,10.63
2022-09-18T04:18:50.423Z,7.93
2022-09-18T04:21:17.502Z,8.10
2022-09-18T04:23:44.644Z,8.32
2022-09-18T04:26:13.816Z,14.60
2022-09-18T04:28:50.984Z,11.30
2022-09-18T04:31:18.481Z,7.97
2022-09-18T04:33:46.377Z,5.93
2022-09-18T04:36:13.496Z,12.32
2022-09-18T04:38:40.717Z,8.63
2022-09-18T04:41:08.491Z,13.23
2022-09-18T04:43:35.653Z,6.90
2022-09-18T04:46:02.744Z,11.38
2022-09-18T04:48:30.161Z,11.25
2022-09-18T04:51:00.524Z,10.10
2022-09-18T04:53:28.215Z,12.82
2022-09-18T04:55:56.871Z,15.20
2022-09-18T04:58:24.013Z,11.35
2022-09-18T05:00:57.761Z,11.05
2022-09-18T05:03:28.555Z,15.48
2022-09-18T05:05:56.163Z,10.52
2022-09-18T05:08:28.185Z,9.93
2022-09-18T05:10:58.287Z,13.45
2022-09-18T05:13:31.210Z,14.80
2022-09-18T05:16:04.215Z,9.68
2022-09-18T05:18:31.848Z,14.40
2022-09-18T05:21:06.083Z,12.68
2022-09-18T05:23:37.661Z,11.85
2022-09-18T05:26:04.886Z,12.13
2022-09-18T05:28:32.507Z,10.07
2022-09-18T05:31:00.752Z,10.68
2022-09-18T05:33:41.249Z,14.13
2022-09-18T05:36:08.896Z,8.07
2022-09-18T05:38:36.033Z,10.48
2022-09-18T05:41:08.879Z,17.80
2022-09-18T05:43:35.977Z,14.50
2022-09-18T05:46:08.303Z,11.70
2022-09-18T05:48:51.096Z,12.18
2022-09-18T05:51:19.908Z,13.23
2022-09-18T05:53:50.345Z,13.02
2022-09-18T05:56:20.072Z,10.32
2022-09-18T05:58:48.682Z,8.07
2022-09-18T06:01:15.833Z,11.32
2022-09-18T06:04:03.731Z,7.88
2022-09-18T06:06:41.972Z,7.47
2022-09-18T06:09:12.637Z,11.90
2022-09-18T06:11:39.760Z,25.38
2022-09-18T06:14:06.955Z,17.20
2022-09-18T06:16:37.549Z,12.32
2022-09-18T06:19:09.943Z,15.90
2022-09-18T06:21:37.303Z,8.85
2022-09-18T06:24:06.920Z,9.05
2022-09-18T06:26:59.886Z,11.50
2022-09-18T06:29:27.337Z,14.90
2022-09-18T06:32:03.117Z,10.70
2022-09-18T06:34:33.578Z,8.52
2022-09-18T06:37:09.541Z,10.48
2022-09-18T06:39:43.327Z,12.15
2022-09-18T06:42:20.306Z,8.82
2022-09-18T06:45:10.516Z,5.35
2022-09-18T06:47:38.675Z,9.65
2022-09-18T06:50:08.011Z,12.80
2022-09-18T06:52:35.070Z,16.85
2022-09-18T06:55:05.267Z,14.13
2022-09-18T06:57:33.264Z,17.30
2022-09-18T07:00:00.378Z,9.60
2022-09-18T07:02:30.508Z,19.05
2022-09-18T07:05:23.935Z,9.35
2022-09-18T07:07:51.990Z,19.45
2022-09-18T07:10:23.722Z,9.18
2022-09-18T07:12:56.101Z,7.97
2022-09-18T07:15:23.539Z,8.35
2022-09-18T07:17:53.454Z,13.68
2022-09-18T07:20:20.655Z,12.45
2022-09-18T07:22:56.011Z,10.57
2022-09-18T07:25:34.526Z,8.75
2022-09-18T07:28:03.354Z,12.02
2022-09-18T07:30:32.061Z,11.82
2022-09-18T07:33:02.601Z,10.23
2022-09-18T07:35:37.658Z,11.57
2022-09-18T07:38:06.431Z,10.90
2022-09-18T07:40:48.567Z,16.10
2022-09-18T07:43:29.508Z,9.93
2022-09-18T07:45:56.630Z,7.82
2022-09-18T07:48:24.462Z,12.32
2022-09-18T07:50:58.303Z,12.63
2022-09-18T07:53:26.416Z,17.60
2022-09-18T07:55:57.603Z,10.60
2022-09-18T07:58:26.855Z,16.25
2022-09-18T08:01:03.082Z,7.85
2022-09-18T08:03:32.206Z,13.77
2022-09-18T08:06:28.620Z,7.80
2022-09-18T08:09:09.643Z,8.23
2022-09-18T08:11:56.243Z,8.13
2022-09-18T08:14:46.222Z,13.98
2022-09-18T08:17:26.246Z,6.85
2022-09-18T08:20:09.044Z,7.35
2022-09-18T08:22:59.197Z,7.57
2022-09-18T08:25:27.540Z,11.23
2022-09-18T08:27:59.564Z,10.20
2022-09-18T08:30:46.898Z,7.40
2022-09-18T08:33:14.247Z,10.10
2022-09-18T08:35:41.581Z,9.73
2022-09-18T08:38:19.287Z,11.25
2022-09-18T08:41:28.956Z,10.07
2022-09-18T08:44:00.900Z,14.85
2022-09-18T08:46:34.207Z,7.45
2022-09-18T08:49:14.085Z,26.23
2022-09-18T08:51:51.762Z,24.10
2022-09-18T08:54:24.778Z,10.30
2022-09-18T08:57:31.119Z,8.82
2022-09-18T09:00:22.214Z,6.43
2022-09-18T09:03:24.211Z,8.25
2022-09-18T09:06:09.118Z,9.40
2022-09-18T09:08:56.498Z,9.80
2022-09-18T09:11:24.513Z,8.45
2022-09-18T09:13:54.645Z,7.47
2022-09-18T09:16:30.889Z,7.63
2022-09-18T09:19:00.262Z,8.32
2022-09-18T09:21:54.591Z,10.52
2022-09-18T09:24:31.632Z,7.13
2022-09-18T09:27:20.402Z,9.65
2022-09-18T09:30:18.565Z,11.27
2022-09-18T09:33:19.187Z,10.52
2022-09-18T09:36:14.106Z,11.68
2022-09-18T09:39:19.196Z,8.50
2022-09-18T09:42:03.292Z,10.18
2022-09-18T09:45:11.446Z,9.18
2022-09-18T09:47:54.061Z,8.48
2022-09-18T09:50:44.636Z,9.43
2022-09-18T09:53:13.110Z,7.68
2022-09-18T09:56:19.808Z,8.40
2022-09-18T09:59:21.040Z,11.30
2022-09-18T10:02:25.251Z,4.47
2022-09-18T10:05:04.676Z,5.43
2022-09-18T10:07:39.437Z,6.95
2022-09-18T10:10:22.116Z,11.23
2022-09-18T10:12:57.156Z,5.38
2022-09-18T10:15:37.578Z,10.20
2022-09-18T10:18:16.343Z,11.82
2022-09-18T10:20:47.157Z,8.93
2022-09-18T10:23:42.002Z,8.57
2022-09-18T10:26:19.067Z,7.75
2022-09-18T10:28:46.213Z,6.43
2022-09-18T10:31:15.844Z,8.73
2022-09-18T10:33:53.290Z,9.15
2022-09-18T10:36:28.064Z,14.40
2022-09-18T10:38:59.818Z,9.55
2022-09-18T10:41:39.247Z,5.45
2022-09-18T10:44:12.064Z,6.40
2022-09-18T10:46:51.785Z,4.22
2022-09-18T10:49:30.619Z,7.38
2022-09-18T10:52:36.238Z,7.00
2022-09-18T10:55:24.979Z,6.45
2022-09-18T10:57:56.467Z,4.50
2022-09-18T11:00:26.335Z,4.03
2022-09-18T11:03:01.378Z,5.07
2022-09-18T11:05:36.464Z,1.90
2022-09-18T11:08:07.570Z,7.68
2022-09-18T11:10:37.633Z,7.07
2022-09-18T11:13:07.757Z,6.00
2022-09-18T11:15:52.975Z,2.97
2022-09-18T11:18:20.951Z,6.20
2022-09-18T11:20:48.086Z,7.25
2022-09-18T11:23:27.775Z,6.82
2022-09-18T11:26:10.745Z,6.82
2022-09-18T11:28:39.571Z,15.45
2022-09-18T11:31:21.435Z,7.13
2022-09-18T11:33:57.563Z,5.00
2022-09-18T11:36:32.802Z,5.68
2022-09-18T11:39:12.557Z,4.30
2022-09-18T11:41:40.686Z,9.27
2022-09-18T11:44:11.045Z,5.43
2022-09-18T11:46:59.898Z,6.40
2022-09-18T11:49:36.074Z,6.05
2022-09-18T11:52:30.530Z,4.90
2022-09-18T11:55:13.146Z,8.20
2022-09-18T11:57:47.253Z,9.35
2022-09-18T12:00:23.185Z,9.60
2022-09-18T12:03:06.661Z,8.30
2022-09-18T12:05:59.128Z,9.10
2022-09-18T12:08:34.599Z,9.85
2022-09-18T12:11:17.252Z,5.93
2022-09-18T12:14:01.166Z,12.15
2022-09-18T12:16:52.534Z,9.05
2022-09-18T12:19:34.516Z,13.70
2022-09-18T12:22:25.173Z,8.48
2022-09-18T12:24:52.833Z,12.13
2022-09-18T12:28:14.571Z,10.82
2022-09-18T12:31:10.538Z,11.80
2022-09-18T12:34:19.633Z,11.07
2022-09-18T12:37:05.518Z,10.40
2022-09-18T12:40:13.522Z,8.82
2022-09-18T12:43:22.175Z,10.10
2022-09-18T12:46:21.607Z,6.40
2022-09-18T12:49:43.404Z,9.60
2022-09-18T12:53:00.259Z,10.63
2022-09-18T12:55:56.767Z,8.48
2022-09-18T12:58:48.732Z,25.45
2022-09-18T13:04:03.536Z,12.30
2022-09-18T13:06:40.866Z,12.05
2022-09-18T13:09:26.002Z,12.82
2022-09-18T13:12:09.822Z,11.65
2022-09-18T13:14:49.880Z,4.27
2022-09-18T13:17:24.020Z,6.20
2022-09-18T13:20:12.857Z,8.30
2022-09-18T13:22:45.740Z,8.30
2022-09-18T13:25:40.501Z,5.45
2022-09-18T13:30:40.720Z,5.50
2022-09-18T13:33:26.751Z,8.85
2022-09-18T13:35:56.928Z,5.40
2022-09-18T13:38:31.072Z,8.52
2022-09-18T13:43:28.127Z,5.28
2022-09-18T13:45:56.878Z,10.25
2022-09-18T13:48:33.081Z,4.90
2022-09-18T13:51:04.082Z,6.13
2022-09-18T13:53:32.968Z,4.45
2022-09-18T13:56:00.676Z,6.57
2022-09-18T13:58:38.026Z,10.32
2022-09-18T14:01:08.021Z,9.98
2022-09-18T14:03:38.507Z,4.00
2022-09-18T14:06:42.433Z,4.60
2022-09-18T14:09:46.120Z,5.95
2022-09-18T14:12:15.889Z,7.38
2022-09-18T14:14:44.660Z,11.18
2022-09-18T14:17:14.227Z,7.40
2022-09-18T14:19:44.959Z,5.97
2022-09-18T14:22:28.326Z,5.53
2022-09-18T14:25:00.652Z,7.18
2022-09-18T14:27:30.435Z,5.75
2022-09-18T14:30:11.050Z,4.40
2022-09-18T14:32:38.811Z,4.05
2022-09-18T14:35:43.385Z,2.95
2022-09-18T14:38:25.664Z,3.65
2022-09-18T14:40:57.550Z,4.57
2022-09-18T14:43:25.441Z,4.43
2022-09-18T14:45:53.432Z,8.55
2022-09-18T14:48:35.215Z,4.22
2022-09-18T14:51:16.421Z,3.28
2022-09-18T14:53:50.078Z,4.88
2022-09-18T14:56:48.948Z,5.25
2022-09-18T14:59:18.234Z,13.20
2022-09-18T15:01:45.453Z,5.80
2022-09-18T15:04:16.557Z,7.38
2022-09-18T15:06:54.611Z,12.05
2022-09-18T15:09:30.916Z,9.43
2022-09-18T15:12:02.560Z,7.93
2022-09-18T15:14:43.976Z,5.90
2022-09-18T15:17:21.630Z,9.50
2022-09-18T15:20:02.387Z,10.23
2022-09-18T15:22:30.074Z,8.95
2022-09-18T15:25:00.742Z,10.20
2022-09-18T15:27:30.108Z,11.65
2022-09-18T15:30:14.219Z,11.13
2022-09-18T15:32:47.419Z,11.95
2022-09-18T15:35:22.206Z,13.07
2022-09-18T15:38:02.679Z,10.50
2022-09-18T15:40:36.286Z,7.32
2022-09-18T15:43:40.781Z,11.05
2022-09-18T15:46:23.367Z,11.73
2022-09-18T15:48:51.924Z,10.35
2022-09-18T15:51:33.879Z,7.43
2022-09-18T15:54:12.132Z,7.57
2022-09-18T15:56:49.604Z,6.13
2022-09-18T15:59:24.735Z,8.48
2022-09-18T16:01:51.813Z,4.57
2022-09-18T16:04:22.581Z,9.55
2022-09-18T16:07:11.920Z,4.80
2022-09-18T16:09:43.825Z,4.43
2022-09-18T16:12:29.184Z,4.18
2022-09-18T16:14:56.174Z,4.70
2022-09-18T16:17:29.282Z,2.90
2022-09-18T16:19:58.383Z,5.18
2022-09-18T16:22:30.319Z,3.88
2022-09-18T16:24:58.228Z,4.47
2022-09-18T16:27:26.295Z,3.42
2022-09-18T16:29:53.414Z,4.80
2022-09-18T16:32:22.761Z,5.18
2022-09-18T16:34:49.804Z,3.65
2022-09-18T16:37:19.124Z,3.38
2022-09-18T16:39:46.184Z,5.72
2022-09-18T16:42:17.744Z,4.93
2022-09-18T16:44:45.991Z,4.03
2022-09-18T16:47:15.677Z,6.05
2022-09-18T16:49:44.696Z,6.82
2022-09-18T16:52:13.633Z,5.30
2022-09-18T16:54:40.639Z,6.00
2022-09-18T16:57:14.578Z,9.52
2022-09-18T16:59:43.226Z,6.50
2022-09-18T17:02:13.083Z,4.82
2022-09-18T17:04:40.318Z,5.10
2022-09-18T17:07:07.444Z,9.13
2022-09-18T17:09:34.672Z,5.13
2022-09-18T17:12:01.899Z,8.85
2022-09-18T17:14:28.929Z,6.95
2022-09-18T17:16:56.025Z,10.55
2022-09-18T17:19:23.191Z,6.18
2022-09-18T17:21:52.539Z,5.05
2022-09-18T17:24:26.131Z,11.38
2022-09-18T17:26:53.991Z,43.03
2022-09-18T17:29:21.312Z,25.58
2022-09-18T17:31:48.445Z,55.17
2022-09-18T17:34:16.597Z,49.47
2022-09-18T17:36:43.683Z,36.50
2022-09-18T17:39:11.969Z,26.52
2022-09-18T17:41:39.182Z,24.40
2022-09-18T17:44:06.344Z,11.50
2022-09-18T17:46:33.436Z,18.85
2022-09-18T17:49:00.994Z,23.00
2022-09-18T17:51:29.336Z,14.07
2022-09-18T17:54:02.966Z,14.43
2022-09-18T17:56:32.638Z,8.90
2022-09-18T17:59:03.874Z,10.95
2022-09-18T18:01:31.791Z,8.27
2022-09-18T18:04:00.089Z,6.35
2022-09-18T18:06:27.130Z,8.10
2022-09-18T18:08:56.509Z,10.23
2022-09-18T18:11:29.194Z,10.43
2022-09-18T18:13:58.828Z,8.68
2022-09-18T18:16:28.777Z,12.45
2022-09-18T18:19:03.557Z,10.65
2022-09-18T18:21:32.746Z,12.02
2022-09-18T18:24:08.842Z,12.68
2022-09-18T18:26:39.493Z,7.43
2022-09-18T18:29:10.949Z,8.88
2022-09-18T18:31:40.297Z,8.90
2022-09-18T18:34:10.594Z,6.80
2022-09-18T18:36:40.054Z,7.40
2022-09-18T18:39:12.013Z,5.85
2022-09-18T18:41:39.612Z,6.25
2022-09-18T18:44:09.148Z,6.55
2022-09-18T18:46:37.143Z,7.78
2022-09-18T18:49:09.046Z,6.40
2022-09-18T18:51:39.072Z,9.60
2022-09-18T18:54:06.441Z,7.57
2022-09-18T18:56:37.619Z,8.90
2022-09-18T18:59:08.802Z,7.15
2022-09-18T19:01:36.218Z,9.20
2022-09-18T19:04:08.837Z,10.68
2022-09-18T19:06:38.862Z,8.48
2022-09-18T19:09:09.656Z,8.73
2022-09-18T19:11:42.791Z,11.65
2022-09-18T19:14:16.139Z,10.23
2022-09-18T19:16:44.839Z,16.03
2022-09-18T19:19:13.535Z,9.60
2022-09-18T19:21:40.722Z,10.18
2022-09-18T19:24:10.363Z,10.30
2022-09-18T19:26:39.854Z,10.45
2022-09-18T19:29:10.569Z,12.80
2022-09-18T19:31:39.408Z,7.18
2022-09-18T19:34:06.928Z,9.48
2022-09-18T19:36:34.471Z,11.73
2022-09-18T19:39:04.468Z,13.10
2022-09-18T19:41:52.496Z,9.90
2022-09-18T19:44:28.414Z,10.70
2022-09-18T19:46:57.830Z,8.40
2022-09-18T19:49:37.078Z,13.60
2022-09-18T19:52:18.170Z,9.25
2022-09-18T19:54:50.306Z,8.30
2022-09-18T19:57:19.086Z,5.90
2022-09-18T19:59:47.022Z,6.88
2022-09-18T20:02:17.477Z,15.32
2022-09-18T20:04:47.427Z,15.00
2022-09-18T20:07:16.229Z,10.27
2022-09-18T20:09:43.289Z,10.02
2022-09-18T20:12:10.760Z,9.35
2022-09-18T20:14:37.759Z,8.35
2022-09-18T20:17:05.377Z,8.77
2022-09-18T20:19:32.543Z,5.55
2022-09-18T20:22:02.174Z,8.38
2022-09-18T20:24:30.165Z,6.47
2022-09-18T20:26:58.012Z,6.97
2022-09-18T20:29:27.270Z,6.30
2022-09-18T20:31:54.869Z,7.43
2022-09-18T20:34:23.159Z,6.20
2022-09-18T20:36:53.121Z,7.90
2022-09-18T20:39:21.554Z,4.78
2022-09-18T20:41:50.108Z,4.78
2022-09-18T20:44:17.989Z,6.22
2022-09-18T20:46:45.044Z,4.72
2022-09-18T20:49:17.525Z,5.90
2022-09-18T20:51:44.748Z,6.10
2022-09-18T20:54:14.204Z,4.35
2022-09-18T20:56:44.195Z,7.15
2022-09-18T20:59:13.747Z,2.83
2022-09-18T21:01:43.645Z,7.68
2022-09-18T21:04:21.390Z,2.85
2022-09-18T21:06:57.212Z,5.88
2022-09-18T21:09:26.347Z,5.00
2022-09-18T21:11:54.764Z,5.70
2022-09-18T21:14:24.062Z,3.88
2022-09-18T21:16:51.469Z,2.72
2022-09-18T21:19:19.689Z,2.58
2022-09-18T21:21:48.069Z,3.67
2022-09-18T21:24:16.485Z,2.25
2022-09-18T21:26:47.755Z,3.33
2022-09-18T21:29:23.547Z,4.43
2022-09-18T21:31:53.387Z,3.20
2022-09-18T21:34:26.855Z,5.72
2022-09-18T21:36:58.329Z,6.55
2022-09-18T21:39:28.185Z,4.07
2022-09-18T21:42:00.441Z,4.32
2022-09-18T21:44:29.847Z,5.15
2022-09-18T21:47:00.045Z,4.75
2022-09-18T21:49:29.075Z,3.40
2022-09-18T21:51:58.363Z,5.13
2022-09-18T21:54:26.201Z,5.80
2022-09-18T21:56:53.971Z,5.10
2022-09-18T21:59:23.434Z,5.30
2022-09-18T22:01:54.545Z,4.53
2022-09-18T22:04:24.061Z,6.35
2022-09-18T22:06:51.134Z,4.65
2022-09-18T22:09:21.660Z,2.22
2022-09-18T22:11:50.114Z,2.65
2022-09-18T22:14:20.631Z,2.42
2022-09-18T22:16:48.323Z,1.88
2022-09-18T22:19:16.972Z,2.17
2022-09-18T22:21:46.867Z,1.08
2022-09-18T22:24:18.858Z,4.88
2022-09-18T22:26:50.058Z,3.90
2022-09-18T22:29:22.903Z,0.98
2022-09-18T22:31:50.839Z,1.80
2022-09-18T22:34:23.392Z,0.75
2022-09-18T22:36:51.223Z,2.83
2022-09-18T22:39:19.887Z,1.10
2022-09-18T22:41:47.679Z,0.98
2022-09-18T22:44:15.508Z,1.10
2022-09-18T22:46:44.725Z,0.93
2022-09-18T22:49:14.342Z,0.95
2022-09-18T22:51:41.837Z,1.08
2022-09-18T22:54:08.874Z,1.15
2022-09-18T22:56:55.486Z,1.10
2022-09-18T22:59:25.805Z,1.55
2022-09-18T23:01:57.834Z,1.23
2022-09-18T23:04:29.074Z,0.50
2022-09-18T23:06:57.537Z,0.90
2022-09-18T23:09:27.564Z,3.13
2022-09-18T23:11:55.164Z,0.70
2022-09-18T23:14:25.970Z,1.23
2022-09-18T23:16:53.669Z,1.08
2022-09-18T23:19:23.274Z,1.17
2022-09-18T23:21:50.666Z,2.35
2022-09-18T23:24:18.356Z,0.70
2022-09-18T23:26:47.893Z,1.25
2022-09-18T23:29:20.905Z,1.38
2022-09-18T23:31:50.489Z,0.65
2022-09-18T23:34:20.202Z,0.75
2022-09-18T23:36:49.570Z,1.02
2022-09-18T23:39:24.357Z,0.50
2022-09-18T23:41:51.876Z,3.78
2022-09-18T23:44:20.698Z,1.45
2022-09-18T23:46:48.264Z,0.73
2022-09-18T23:49:16.841Z,0.90
2022-09-18T23:51:48.407Z,1.02
2022-09-18T23:54:20.739Z,1.27
2022-09-18T23:56:48.183Z,0.45
2022-09-18T23:59:21.933Z,0.60
